Map

Track Data

SID SEASON NUMBER BASIN SUBBASIN NAME ISO_TIME NATURE LAT LON WMO_WIND WMO_PRES WMO_AGENCY TRACK_TYPE DIST2LAND LANDFALL IFLAG USA_AGENCY USA_ATCF_ID USA_LAT USA_LON USA_RECORD USA_STATUS USA_WIND USA_PRES USA_SSHS USA_R34_NE USA_R34_SE USA_R34_SW USA_R34_NW USA_R50_NE USA_R50_SE USA_R50_SW USA_R50_NW USA_R64_NE USA_R64_SE USA_R64_SW USA_R64_NW USA_POCI USA_ROCI USA_RMW USA_EYE TOKYO_LAT TOKYO_LON TOKYO_GRADE TOKYO_WIND TOKYO_PRES TOKYO_R50_DIR TOKYO_R50_LONG TOKYO_R50_SHORT TOKYO_R30_DIR TOKYO_R30_LONG TOKYO_R30_SHORT TOKYO_LAND CMA_LAT CMA_LON CMA_CAT CMA_WIND CMA_PRES HKO_LAT HKO_LON HKO_CAT HKO_WIND HKO_PRES NEWDELHI_LAT NEWDELHI_LON NEWDELHI_GRADE NEWDELHI_WIND NEWDELHI_PRES NEWDELHI_CI NEWDELHI_DP NEWDELHI_POCI REUNION_LAT REUNION_LON REUNION_TYPE REUNION_WIND REUNION_PRES REUNION_TNUM REUNION_CI REUNION_RMW REUNION_R34_NE REUNION_R34_SE REUNION_R34_SW REUNION_R34_NW REUNION_R50_NE REUNION_R50_SE REUNION_R50_SW REUNION_R50_NW REUNION_R64_NE REUNION_R64_SE REUNION_R64_SW REUNION_R64_NW BOM_LAT BOM_LON BOM_TYPE BOM_WIND BOM_PRES BOM_TNUM BOM_CI BOM_RMW BOM_R34_NE BOM_R34_SE BOM_R34_SW BOM_R34_NW BOM_R50_NE BOM_R50_SE BOM_R50_SW BOM_R50_NW BOM_R64_NE BOM_R64_SE BOM_R64_SW BOM_R64_NW BOM_ROCI BOM_POCI BOM_EYE BOM_POS_METHOD BOM_PRES_METHOD NADI_LAT NADI_LON NADI_CAT NADI_WIND NADI_PRES WELLINGTON_LAT WELLINGTON_LON WELLINGTON_WIND WELLINGTON_PRES DS824_LAT DS824_LON DS824_STAGE DS824_WIND DS824_PRES TD9636_LAT TD9636_LON TD9636_STAGE TD9636_WIND TD9636_PRES TD9635_LAT TD9635_LON TD9635_WIND TD9635_PRES TD9635_ROCI NEUMANN_LAT NEUMANN_LON NEUMANN_CLASS NEUMANN_WIND NEUMANN_PRES MLC_LAT MLC_LON MLC_CLASS MLC_WIND MLC_PRES USA_GUST BOM_GUST BOM_GUST_PER REUNION_GUST REUNION_GUST_PER USA_SEAHGT USA_SEARAD_NE USA_SEARAD_SE USA_SEARAD_SW USA_SEARAD_NW STORM_SPEED STORM_DIR
1972082S15199 1972 26 SP MM AGATHA 1972-03-22 00:00:00 TS -15.2000 -160.700 30 997 wellington main 1248 1248 ________O___O_ -1 -15.2000 -160.700 30 997 -15.2000 -160.700 TC 20 9 167
1972082S15199 1972 26 SP MM AGATHA 1972-03-22 03:00:00 TS -15.6108 -160.598 main 1264 1264 ________P___P_ -1 -15.6266 -160.593 32 995 -15.5950 -160.603 TC 25 9 166
1972082S15199 1972 26 SP MM AGATHA 1972-03-22 06:00:00 TS -16.0213 -160.494 main 1281 1281 ________P___O_ -1 -16.0426 -160.488 35 993 -16.0000 -160.500 TC 30 8 166
1972082S15199 1972 26 SP MM AGATHA 1972-03-22 09:00:00 TS -16.4261 -160.391 main 1300 1266 ________P___P_ -1 -16.4372 -160.389 37 991 -16.4150 -160.393 TC 32 3 212
1972082S15199 1972 26 SP MM AGATHA 1972-03-22 12:00:00 TS -16.3091 -160.682 40 990 wellington main 1266 1266 O_______OOO_O_ jtwc_sh SH261972 -15.0000 -161.700 -1 -16.8000 -160.300 40 990 -15.0000 198.300 TC 35 -15.0000 -161.700 2 -16.8000 -160.300 TC 35 3 269
1972082S15199 1972 26 SP MM AGATHA 1972-03-22 15:00:00 TS -16.4288 -160.672 main 1268 1268 P_______PPP_P_ SH261972 -15.4952 -161.253 -1 -17.1246 -160.222 46 985 -15.4952 -161.253 TC 35 -15.5317 -161.256 2 -17.1150 -160.250 TC 42 4 155
1972082S15199 1972 26 SP MM AGATHA 1972-03-22 18:00:00 TS -16.6730 -160.507 main 1296 1296 O_______POP_O_ jtwc_sh SH261972 -16.0000 -160.800 -1 -17.4224 -160.150 52 980 -16.0000 199.200 TC 35 -16.0505 -160.809 2 -17.4000 -160.200 TC 50 7 144
1972082S15199 1972 26 SP MM AGATHA 1972-03-22 21:00:00 TS -16.9966 -160.246 main 1335 1335 P_______PPP_P_ SH261972 -16.5149 -160.342 -1 -17.7090 -160.078 58 975 -16.5149 -160.342 TC 35 -16.5440 -160.357 2 -17.7000 -160.107 TC 52 9 143
1972082S15199 1972 26 SP MM AGATHA 1972-03-23 00:00:00 TS -17.4000 -159.940 65 970 wellington main 1377 1377 O_______OOO_O_ jtwc_sh SH261972 -17.0000 -159.900 -1 -18.0000 -160.000 65 970 -17.0000 200.100 TC 35 -17.0000 -159.900 2 -18.0000 -160.000 TC 55 10 143
1972082S15199 1972 26 SP MM AGATHA 1972-03-23 03:00:00 TS -17.7689 -159.641 main 1420 1420 P_______PPP_P_ SH261972 -17.4149 -159.485 -1 -18.3097 -159.891 66 968 -17.4149 -159.485 TC 35 -17.4126 -159.442 2 -18.2925 -159.900 TC 57 9 143
1972082S15199 1972 26 SP MM AGATHA 1972-03-23 06:00:00 TS -18.1256 -159.359 main 1450 1450 O_______POP_O_ jtwc_sh SH261972 -17.8000 -159.100 -1 -18.6276 -159.778 67 967 -17.8000 200.900 TC 35 -17.8002 -159.015 2 -18.6000 -159.800 TC 60 9 144
1972082S15199 1972 26 SP MM AGATHA 1972-03-23 09:00:00 TS -18.4899 -159.090 main 1494 1494 P_______PPP_P_ SH261972 -18.1850 -158.712 -1 -18.9566 -159.676 68 966 -18.1850 -158.712 TC 35 -18.1877 -158.655 2 -18.9350 -159.693 TC 62 9 149
1972082S15199 1972 26 SP MM AGATHA 1972-03-23 12:00:00 TS -18.8800 -158.880 70 965 wellington main 1529 1529 O_______OOO_O_ jtwc_sh SH261972 -18.6000 -158.400 -1 -19.3000 -159.600 70 965 -18.6000 201.600 TC 35 -18.6000 -158.400 2 -19.3000 -159.600 TC 65 9 158
1972082S15199 1972 26 SP MM AGATHA 1972-03-23 15:00:00 TS -19.3340 -158.738 main 1564 1564 P_______PPP_P_ SH261972 -19.0849 -158.175 -1 -19.7053 -159.563 66 968 -19.0849 -158.175 TC 35 -19.0950 -158.247 2 -19.7000 -159.528 TC 62 9 169
1972082S15199 1972 26 SP MM AGATHA 1972-03-23 18:00:00 TS -19.8063 -158.692 main 1585 1585 O_______POP_O_ jtwc_sh SH261972 -19.6000 -158.100 -1 -20.1174 -159.555 62 972 -19.6000 201.900 TC 35 -19.6142 -158.205 2 -20.1000 -159.500 TC 60 9 180
1972082S15199 1972 26 SP MM AGATHA 1972-03-23 21:00:00 TS -20.2694 -158.749 main 1608 1598 P_______PPP_P_ SH261972 -20.1150 -158.190 -1 -20.4959 -159.569 58 976 -20.1150 -158.190 TC 35 -20.1263 -158.260 2 -20.4950 -159.535 TC 60 9 192
1972082S15199 1972 26 SP MM AGATHA 1972-03-24 00:00:00 TS -20.6800 -158.880 55 980 wellington main 1608 1608 O_______OOO_O_ jtwc_sh SH261972 -20.6000 -158.400 -1 -20.8000 -159.600 55 980 -20.6000 201.600 TC 35 -20.6000 -158.400 2 -20.8000 -159.600 TC 60 8 200
1972082S15199 1972 26 SP MM AGATHA 1972-03-24 03:00:00 TS -20.9923 -159.026 main 1614 1605 P_______PPP_P_ SH261972 -21.0300 -158.628 -1 -20.9506 -159.628 55 980 -21.0300 -158.628 TC 35 -21.0137 -158.599 2 -20.9375 -159.650 TC 60 6 209
1972082S15199 1972 26 SP MM AGATHA 1972-03-24 06:00:00 TS -21.2426 -159.209 main 1607 1600 O_______POP_O_ jtwc_sh SH261972 -21.4000 -158.900 -1 -21.0300 -159.670 55 980 -21.4000 201.100 TC 35 -21.3829 -158.874 2 -21.0000 -159.700 TC 60 6 217
1972082S15199 1972 26 SP MM AGATHA 1972-03-24 09:00:00 TS -21.4685 -159.411 main 1605 1593 P_______PPP_P_ SH261972 -21.7300 -159.200 -1 -21.0943 -159.728 55 980 -21.7300 -159.200 TC 35 -21.7106 -159.187 2 -21.0775 -159.743 TC 57 6 221
1972082S15199 1972 26 SP MM AGATHA 1972-03-24 12:00:00 TS -21.6800 -159.620 55 980 wellington main 1599 1587 O_______OOO_O_ jtwc_sh SH261972 -22.0000 -159.500 -1 -21.2000 -159.800 55 980 -22.0000 200.500 TC 35 -22.0000 -159.500 2 -21.2000 -159.800 TC 55 6 221
1972082S15199 1972 26 SP MM AGATHA 1972-03-24 15:00:00 TS -21.9009 -159.818 main 1593 1585 P_______PPP_P_ SH261972 -22.2074 -159.758 -1 -21.4126 -159.902 51 982 -22.2074 -159.758 TC 35 -22.2569 -159.782 2 -21.4200 -159.892 TC 55 6 219
1972082S15199 1972 26 SP MM AGATHA 1972-03-24 18:00:00 TS -22.1310 -160.013 main 1588 1584 O_______POP_O_ jtwc_sh SH261972 -22.4000 -160.000 -1 -21.6751 -160.015 47 985 -22.4000 200.000 TC 35 -22.4801 -160.053 2 -21.7000 -160.000 TC 55 6 217
1972082S15199 1972 26 SP MM AGATHA 1972-03-24 21:00:00 TS -22.3867 -160.213 main 1590 1582 P_______PPP_P_ SH261972 -22.6425 -160.265 -1 -21.9751 -160.120 43 987 -22.6425 -160.265 TC 35 -22.6882 -160.297 2 -21.9850 -160.115 TC 52 6 213
1972082S15199 1972 26 SP MM AGATHA 1972-03-25 00:00:00 TS -22.6600 -160.380 40 990 wellington main 1593 1592 O_______OOO_O_ jtwc_sh SH261972 -22.9000 -160.500 -1 -22.3000 -160.200 40 990 -22.9000 199.500 TC 35 -22.9000 -160.500 2 -22.3000 -160.200 TC 50 6 205
1972082S15199 1972 26 SP MM AGATHA 1972-03-25 03:00:00 TS -22.9435 -160.490 main 1598 1598 P_______PPP_P_ SH261972 -23.1500 -160.680 -1 -22.6406 -160.209 40 990 -23.1500 -160.680 TC 35 -23.1345 -160.668 2 -22.6425 -160.215 TC 42 6 196
1972082S15199 1972 26 SP MM AGATHA 1972-03-25 06:00:00 TS -23.2354 -160.557 main 1611 1611 O_______POP_O_ jtwc_sh SH261972 -23.4000 -160.800 -1 -22.9999 -160.193 40 990 -23.4000 199.200 TC 35 -23.3773 -160.790 2 -23.0000 -160.200 TC 35 6 189
1972082S15199 1972 26 SP MM AGATHA 1972-03-25 09:00:00 TS -23.5266 -160.593 main 1632 1632 P_______PPP_P_ SH261972 -23.6425 -160.873 -1 -23.3593 -160.181 40 990 -23.6425 -160.873 TC 35 -23.6314 -160.867 2 -23.3575 -160.170 TC 32 6 185
1972082S15199 1972 26 SP MM AGATHA 1972-03-25 12:00:00 TS -23.8200 -160.620 40 990 wellington main 1654 1654 O_______OOO_O_ jtwc_sh SH261972 -23.9000 -160.900 -1 -23.7000 -160.200 40 990 -23.9000 199.100 TC 35 -23.9000 -160.900 2 -23.7000 -160.200 TC 30 6 189
1972082S15199 1972 26 SP MM AGATHA 1972-03-25 15:00:00 TS -24.1270 -160.701 main 1668 1668 P_______PPP_P_ SH261972 -24.1925 -160.922 -1 -24.0292 -160.337 40 990 -24.1925 -160.922 TC 35 -24.2057 -160.930 2 -24.0151 -160.392 TC 30 6 192
1972082S15199 1972 26 SP MM AGATHA 1972-03-25 18:00:00 TS -24.4310 -160.763 main 1683 1683 O_______POP_O_ jtwc_sh SH261972 -24.5000 -160.900 -1 -24.3326 -160.501 40 990 -24.5000 199.100 TC 35 -24.5221 -160.912 2 -24.3000 -160.600 TC 30 6 186
1972082S15199 1972 26 SP MM AGATHA 1972-03-25 21:00:00 TS -24.7264 -160.768 main 1706 1706 P_______PPP_P_ SH261972 -24.8150 -160.830 -1 -24.5947 -160.640 40 990 -24.8150 -160.830 TC 35 -24.8275 -160.839 2 -24.5799 -160.703 TC 27 6 174
1972082S15199 1972 26 SP MM AGATHA 1972-03-26 00:00:00 TS -24.9800 -160.700 40 990 wellington main 1737 1737 O_______OOO_O_ jtwc_sh SH261972 -25.1000 -160.700 -1 -24.8000 -160.700 40 990 -25.1000 199.300 TC 35 -25.1000 -160.700 2 -24.8000 -160.700 TC 25 5 156
1972082S15199 1972 26 SP MM AGATHA 1972-03-26 03:00:00 TS -25.1678 -160.553 main 1759 1759 P_______PPP_P_ SH261972 -25.3224 -160.537 -1 -24.9407 -160.612 40 990 -25.3224 -160.537 TC 35 -25.3236 -160.491 2 -24.9300 -160.588 TC 25 4 132
1972082S15199 1972 26 SP MM AGATHA 1972-03-26 06:00:00 TS -25.2717 -160.343 main 1789 1789 O_______POP_O_ jtwc_sh SH261972 -25.5000 -160.300 -1 -25.0251 -160.440 40 990 -25.5000 199.700 TC 35 -25.5058 -160.226 2 -25.0000 -160.400 TC 25 4 111
1972082S15199 1972 26 SP MM AGATHA 1972-03-26 09:00:00 TS -25.3207 -160.105 main 1803 1803 P_______PPP_P_ SH261972 -25.6553 -159.975 -1 -25.0720 -160.224 40 990 -25.6553 -159.975 TC 35 -25.6601 -159.922 2 -25.0650 -160.208 TC 25 4 93
1972082S15199 1972 26 SP MM AGATHA 1972-03-26 12:00:00 TS -25.2909 -159.891 40 990 wellington main 1818 1810 O_______OOO_O_ jtwc_sh SH261972 -25.8000 -159.600 -1 -25.1000 -160.000 40 990 -25.8000 200.400 TC 35 -25.8000 -159.600 2 -25.1000 -160.000 TC 25 3 52
1972082S15199 1972 26 SP MM AGATHA 1972-03-26 15:00:00 TS -25.1135 -159.813 main 1810 1810 ________P___P_ SH261972 -1 -25.1271 -159.833 40 990 TC 2 -25.1000 -159.792 TC 22 3 54
1972082S15199 1972 26 SP MM AGATHA 1972-03-26 18:00:00 TS -25.1212 -159.632 main 1825 1825 ________P___O_ -1 -25.1423 -159.665 40 990 2 -25.1000 -159.600 TC 20 3 96
1972082S15199 1972 26 SP MM AGATHA 1972-03-26 21:00:00 TS -25.1482 -159.473 main 1833 1833 ________P___P_ -1 -25.1614 -159.489 40 990 2 -25.1349 -159.457 TC 20 3 105
1972082S15199 1972 26 SP MM AGATHA 1972-03-27 00:00:00 TS -25.2000 -159.300 40 990 wellington main 1856 1856 ________O___O_ -1 -25.2000 -159.300 40 990 -25.2000 -159.300 TC 20 4 110
1972082S15199 1972 26 SP MM AGATHA 1972-03-27 03:00:00 TS -25.2856 -159.063 main 1878 1878 ________P___P_ -1 -25.2786 -159.069 40 990 -25.2926 -159.058 TC 20 5 113
1972082S15199 1972 26 SP MM AGATHA 1972-03-27 06:00:00 TS -25.3889 -158.814 main 1908 1908 ________P___O_ -1 -25.3778 -158.828 40 990 -25.4000 -158.800 TC 20 5 116
1972082S15199 1972 26 SP MM AGATHA 1972-03-27 09:00:00 TS -25.4940 -158.587 main 1931 1931 ________P___P_ -1 -25.4880 -158.597 40 990 -25.5000 -158.577 TC 20 4 120
1972082S15199 1972 26 SP MM AGATHA 1972-03-27 12:00:00 TS -25.6000 -158.400 40 990 wellington main 1953 1953 ________O___O_ -1 -25.6000 -158.400 40 990 -25.6000 -158.400 TC 20 4 126
1972082S15199 1972 26 SP MM AGATHA 1972-03-27 15:00:00 TS -25.7032 -158.268 main 1968 1968 ________P___P_ -1 -25.7064 -158.252 40 990 -25.7000 -158.285 TC 20 3 135
1972082S15199 1972 26 SP MM AGATHA 1972-03-27 18:00:00 TS -25.8036 -158.172 main 1983 1983 ________P___O_ -1 -25.8073 -158.145 40 990 -25.8000 -158.200 TC 20 3 141
1972082S15199 1972 26 SP MM AGATHA 1972-03-27 21:00:00 TS -25.9023 -158.085 main 1998 1998 ________P___P_ -1 -25.9046 -158.066 40 990 -25.9000 -158.105 TC 20 3 142
1972082S15199 1972 26 SP MM AGATHA 1972-03-28 00:00:00 TS -26.0000 -158.000 40 990 wellington main 2013 ________O___O_ -1 -26.0000 -158.000 40 990 -26.0000 -158.000 TC 20 2 141

Digital Typhoon Data and Search

About IBTrACS Database

This database is a web-friendly format of International Best Track Archive for Climate Stewardship (IBTrACS), a global best track data archive curated by NOAA dating back to 1842.

Updated: 2021-12-01